Time;durP1;ratioP1;P1;durP2;ratioP2;P2;SDS_P1;SDS_P2;PMS_P1;PMS_P2;Temp;Humidity;BMP_temperature;BMP_pressure;BME280_temperature;BME280_humidity;BME280_pressure;Samples;Min_cycle;Max_cycle;Signal;HPM_P1;HPM_P2
2021/10/03 00:00:17;;;;;;;;;2.00;2.00;;;;;17.64;73.41;99332.63;4986748;28;45415;-69
2021/10/03 00:02:45;;;;;;;;;1.67;1.00;;;;;17.63;73.44;99325.66;4982696;28;45520;-71
2021/10/03 00:05:12;;;;;;;;;1.00;1.00;;;;;17.63;73.02;99317.72;4963695;28;47342;-71
2021/10/03 00:07:59;;;;;;;;;1.00;1.00;;;;;17.65;73.38;99317.50;4976835;28;45583;-69
2021/10/03 00:10:28;;;;;;;;;6.00;3.00;;;;;17.66;73.27;99311.19;4991923;28;45473;-69
2021/10/03 00:12:55;;;;;;;;;2.00;2.00;;;;;17.68;73.24;99322.41;4981283;28;45399;-69
2021/10/03 00:15:21;;;;;;;;;2.00;2.00;;;;;17.67;73.66;99301.38;4963285;28;47365;-68
2021/10/03 00:17:48;;;;;;;;;3.00;2.00;;;;;17.69;72.97;99299.34;4980943;28;45246;-69
2021/10/03 00:20:17;;;;;;;;;2.33;2.00;;;;;17.68;73.03;99293.22;4980899;28;45362;-71
2021/10/03 00:22:42;;;;;;;;;1.00;1.00;;;;;17.69;73.14;99292.19;4961012;28;45690;-72
2021/10/03 00:25:13;;;;;;;;;2.33;2.33;;;;;17.69;73.25;99288.72;4981679;28;45882;-72
2021/10/03 00:27:38;;;;;;;;;3.33;3.00;;;;;17.67;73.57;99282.78;4981989;28;45363;-72
2021/10/03 00:30:04;;;;;;;;;2.67;2.00;;;;;17.70;72.85;99285.06;4981717;28;45356;-71
2021/10/03 00:32:29;;;;;;;;;1.00;1.00;;;;;17.71;72.86;99276.06;4981508;28;45466;-71
2021/10/03 00:34:55;;;;;;;;;2.00;2.00;;;;;17.72;72.96;99277.72;4960859;28;47047;-71
2021/10/03 00:37:22;;;;;;;;;3.00;3.00;;;;;17.72;72.60;99277.72;4978933;28;45278;-70
2021/10/03 00:39:47;;;;;;;;;2.00;2.00;;;;;17.72;72.85;99267.09;4969971;28;45449;-71
2021/10/03 00:42:13;;;;;;;;;3.67;2.33;;;;;17.70;72.58;99263.81;4977455;28;45361;-70
2021/10/03 00:44:38;;;;;;;;;3.00;3.00;;;;;17.71;72.54;99265.44;4980496;28;45265;-70
2021/10/03 00:47:04;;;;;;;;;4.67;3.00;;;;;17.73;73.21;99263.44;4979165;28;45590;-70
2021/10/03 00:49:33;;;;;;;;;4.33;3.00;;;;;17.70;72.77;99256.66;4977864;28;45590;-71
2021/10/03 00:52:00;;;;;;;;;5.00;3.00;;;;;17.72;72.60;99256.47;4991216;28;45449;-71
2021/10/03 00:54:26;;;;;;;;;3.00;3.00;;;;;17.73;72.29;99258.13;4983061;28;47163;-71
2021/10/03 00:56:52;;;;;;;;;2.33;2.33;;;;;17.73;72.68;99252.81;4985352;28;44795;-71
2021/10/03 00:59:17;;;;;;;;;3.00;3.00;;;;;17.72;72.80;99252.00;4983458;28;45576;-72
2021/10/03 01:01:42;;;;;;;;;4.00;2.67;;;;;17.71;73.25;99244.19;4979129;28;45393;-72
2021/10/03 01:04:08;;;;;;;;;2.00;2.00;;;;;17.72;72.91;99229.91;4984293;28;45958;-71
2021/10/03 01:06:35;;;;;;;;;4.00;3.67;;;;;17.72;72.93;99240.53;4983139;28;45534;-70
2021/10/03 01:09:03;;;;;;;;;4.67;4.00;;;;;17.71;72.97;99238.88;4982787;28;47450;-71
2021/10/03 01:11:28;;;;;;;;;3.00;3.00;;;;;17.70;72.43;99240.72;4981249;28;45500;-71
2021/10/03 01:13:54;;;;;;;;;3.67;3.67;;;;;17.69;73.68;99231.13;4978084;28;45360;-71
2021/10/03 01:16:19;;;;;;;;;3.00;3.00;;;;;17.69;73.74;99235.63;4979817;28;45307;-71
2021/10/03 01:18:45;;;;;;;;;4.67;3.00;;;;;17.65;73.34;99229.88;4982782;28;45488;-71
2021/10/03 01:21:11;;;;;;;;;4.00;4.00;;;;;17.65;73.43;99224.56;4963056;28;45498;-72
2021/10/03 01:23:37;;;;;;;;;5.33;3.67;;;;;17.64;73.46;99212.31;4981882;28;46101;-71
2021/10/03 01:26:03;;;;;;;;;4.67;3.00;;;;;17.61;73.97;99208.22;4979898;28;45742;-70
2021/10/03 01:28:30;;;;;;;;;1.00;1.00;;;;;17.61;73.42;99213.53;4977822;28;45551;-71
2021/10/03 01:30:56;;;;;;;;;3.67;3.67;;;;;17.60;73.84;99209.22;4981420;28;45227;-71
2021/10/03 01:33:24;;;;;;;;;3.50;3.50;;;;;17.58;73.40;99198.00;4980438;28;46864;-72
2021/10/03 01:35:49;;;;;;;;;4.00;3.33;;;;;17.56;73.51;99200.00;4985402;28;45495;-72
2021/10/03 01:38:17;;;;;;;;;3.00;3.00;;;;;17.57;73.72;99191.03;4991312;28;45518;-72
2021/10/03 01:40:44;;;;;;;;;4.67;4.67;;;;;17.56;73.50;99186.75;4975342;28;45528;-70
2021/10/03 01:43:11;;;;;;;;;4.00;4.00;;;;;17.55;73.73;99187.75;4979858;28;47059;-70
2021/10/03 01:45:38;;;;;;;;;6.00;4.00;;;;;17.55;73.60;99186.94;4978602;28;45481;-70
2021/10/03 01:48:19;;;;;;;;;4.00;4.00;;;;;17.54;73.60;99183.47;4979411;28;45556;-70
2021/10/03 01:50:50;;;;;;;;;5.00;4.00;;;;;17.53;73.61;99179.19;4979183;28;45495;-71
2021/10/03 01:53:19;;;;;;;;;2.33;2.33;;;;;17.52;73.79;99171.44;4979584;28;45528;-70
2021/10/03 01:55:46;;;;;;;;;4.00;4.00;;;;;17.52;73.93;99169.56;4958173;28;45340;-70
2021/10/03 01:58:13;;;;;;;;;4.33;4.33;;;;;17.51;74.43;99167.94;4975147;28;45186;-71
2021/10/03 02:00:42;;;;;;;;;2.33;2.33;;;;;17.51;73.95;99164.47;4980628;28;45500;-72
2021/10/03 02:03:09;;;;;;;;;5.67;4.67;;;;;17.49;73.95;99162.03;4979558;28;46468;-69
2021/10/03 02:05:38;;;;;;;;;3.33;3.33;;;;;17.48;74.22;99155.06;4961822;28;45521;-70
2021/10/03 02:08:06;;;;;;;;;6.00;4.00;;;;;17.50;73.96;99155.66;4978077;28;45455;-71
2021/10/03 02:10:32;;;;;;;;;4.67;4.33;;;;;17.51;74.13;99153.84;4976449;28;45516;-72
2021/10/03 02:12:58;;;;;;;;;3.00;3.00;;;;;17.51;73.97;99138.72;4982639;28;45583;-70
2021/10/03 02:15:23;;;;;;;;;4.33;3.33;;;;;17.50;74.10;99137.09;4980631;28;45568;-70
2021/10/03 02:17:49;;;;;;;;;2.33;1.33;;;;;17.49;74.48;99140.78;4981052;28;45381;-72
2021/10/03 02:20:17;;;;;;;;;4.33;3.67;;;;;17.48;74.56;99125.88;4979510;28;45527;-70
2021/10/03 02:22:43;;;;;;;;;3.67;3.67;;;;;17.47;74.29;99127.69;4942525;28;48262;-72
2021/10/03 02:25:08;;;;;;;;;4.00;4.00;;;;;17.46;74.02;99123.41;4980785;28;45333;-72
2021/10/03 02:27:34;;;;;;;;;4.00;3.00;;;;;17.46;74.28;99114.63;4982236;28;45595;-72
2021/10/03 02:30:00;;;;;;;;;5.00;3.00;;;;;17.46;74.15;99115.44;4986757;28;45404;-71
2021/10/03 02:32:25;;;;;;;;;8.67;4.00;;;;;17.44;74.82;99103.41;4989260;28;46097;-72
2021/10/03 02:34:51;;;;;;;;;5.33;4.67;;;;;17.43;74.44;99104.41;4985983;28;45350;-71
2021/10/03 02:37:16;;;;;;;;;7.00;5.00;;;;;17.42;74.09;99097.44;4988605;28;45534;-70
2021/10/03 02:39:42;;;;;;;;;9.00;4.67;;;;;17.40;74.94;99088.88;4987001;28;45461;-70
2021/10/03 02:42:07;;;;;;;;;2.33;2.00;;;;;17.40;74.42;99104.81;4985505;28;47120;-72
2021/10/03 02:44:33;;;;;;;;;4.67;3.33;;;;;17.40;74.08;99094.19;4986158;28;45568;-71
2021/10/03 02:46:59;;;;;;;;;2.00;2.00;;;;;17.36;74.45;99082.31;4983933;28;45550;-70
2021/10/03 02:49:24;;;;;;;;;2.67;2.33;;;;;17.42;74.07;99087.69;4984025;28;45508;-71
2021/10/03 02:51:50;;;;;;;;;3.67;3.67;;;;;17.42;74.23;99092.16;4959124;28;47134;-70
2021/10/03 02:54:16;;;;;;;;;4.33;4.00;;;;;17.40;74.20;99088.88;4983881;28;45336;-70
2021/10/03 02:56:41;;;;;;;;;2.00;2.00;;;;;17.40;74.09;99091.53;4986143;28;45220;-71
2021/10/03 02:59:06;;;;;;;;;5.33;4.33;;;;;17.40;74.41;99088.88;4984910;28;45493;-70
2021/10/03 03:01:32;;;;;;;;;3.67;2.67;;;;;17.39;74.50;99076.63;4979431;28;46262;-71
2021/10/03 03:03:57;;;;;;;;;5.00;5.00;;;;;17.38;74.23;99067.03;4995522;28;45309;-72
2021/10/03 03:06:22;;;;;;;;;6.33;4.33;;;;;17.37;74.20;99062.72;4987987;28;45288;-72
2021/10/03 03:08:48;;;;;;;;;4.33;4.33;;;;;17.37;74.06;99062.72;4987481;28;45354;-72
2021/10/03 03:11:14;;;;;;;;;4.33;3.33;;;;;17.35;74.09;99070.88;4964018;28;48122;-69
2021/10/03 03:13:39;;;;;;;;;3.00;3.00;;;;;17.37;74.14;99070.69;4965791;28;45487;-70
2021/10/03 03:16:05;;;;;;;;;4.00;4.00;;;;;17.36;74.20;99061.09;4986546;28;45184;-70
2021/10/03 03:18:30;;;;;;;;;7.00;5.67;;;;;17.34;73.79;99057.81;4985925;28;45392;-71
2021/10/03 03:20:56;;;;;;;;;5.00;5.00;;;;;17.36;74.21;99050.47;4990388;28;45329;-71
2021/10/03 03:23:21;;;;;;;;;4.00;4.00;;;;;17.32;74.01;99039.47;4990884;28;45318;-71
2021/10/03 03:25:47;;;;;;;;;4.33;3.00;;;;;17.31;74.25;99038.63;4983976;28;45400;-69
2021/10/03 03:28:12;;;;;;;;;7.67;4.67;;;;;17.32;73.92;99034.16;4986934;28;45259;-69
2021/10/03 03:30:38;;;;;;;;;5.67;4.67;;;;;17.31;73.95;99028.00;4985292;28;45445;-69
2021/10/03 03:33:04;;;;;;;;;3.67;3.67;;;;;17.31;73.68;99027.19;4982791;28;45476;-69
2021/10/03 03:35:29;;;;;;;;;4.00;4.00;;;;;17.31;73.81;99022.69;4979134;28;45358;-71
2021/10/03 03:37:55;;;;;;;;;5.00;3.33;;;;;17.30;73.82;99013.09;4998039;28;45499;-70
2021/10/03 03:40:20;;;;;;;;;4.67;4.67;;;;;17.31;73.74;99025.34;4984954;28;46026;-71
2021/10/03 03:42:47;;;;;;;;;4.00;4.00;;;;;17.32;73.60;99029.66;4969392;28;45335;-71
2021/10/03 03:45:13;;;;;;;;;6.33;5.00;;;;;17.31;73.71;99022.69;4984142;28;45251;-70
2021/10/03 03:47:40;;;;;;;;;5.67;5.67;;;;;17.31;73.69;99020.03;4966232;28;45483;-70
2021/10/03 03:50:08;;;;;;;;;8.00;6.67;;;;;17.29;74.00;99019.44;4985807;28;47171;-72
2021/10/03 03:52:33;;;;;;;;;4.33;4.33;;;;;17.27;73.63;99016.16;4999774;28;45459;-71
2021/10/03 03:54:58;;;;;;;;;8.67;6.67;;;;;17.26;73.96;99003.91;4996246;28;45869;-70
2021/10/03 03:57:24;;;;;;;;;6.33;6.00;;;;;17.25;73.76;99002.25;4987639;28;46284;-70
2021/10/03 03:59:49;;;;;;;;;5.33;3.33;;;;;17.25;73.54;99004.91;4981663;28;45388;-69
2021/10/03 04:02:18;;;;;;;;;5.67;5.67;;;;;17.25;73.81;99002.25;4977492;28;45440;-70
2021/10/03 04:04:43;;;;;;;;;5.67;5.00;;;;;17.25;73.63;99002.25;4976681;28;45593;-71
2021/10/03 04:07:09;;;;;;;;;5.67;5.67;;;;;17.26;73.49;99003.09;4970813;28;45289;-71
2021/10/03 04:09:34;;;;;;;;;9.67;5.67;;;;;17.27;73.22;98994.94;4981071;28;46224;-70
2021/10/03 04:12:00;;;;;;;;;4.33;4.00;;;;;17.27;73.48;99005.53;4981406;28;46214;-68
2021/10/03 04:14:26;;;;;;;;;7.67;6.00;;;;;17.29;73.47;99003.53;4981369;28;45368;-68
2021/10/03 04:16:51;;;;;;;;;8.00;5.00;;;;;17.31;73.39;99008.63;4978783;28;45978;-70
2021/10/03 04:19:17;;;;;;;;;8.00;6.33;;;;;17.30;73.78;99021.06;4980414;28;45385;-70
2021/10/03 04:21:42;;;;;;;;;3.00;3.00;;;;;17.32;73.65;99015.56;4981829;28;45282;-68
2021/10/03 04:24:08;;;;;;;;;7.33;6.00;;;;;17.32;73.49;99015.56;4983772;28;45320;-69
2021/10/03 04:26:33;;;;;;;;;9.00;6.00;;;;;17.33;73.62;99019.84;4990458;28;45562;-70
2021/10/03 04:28:58;;;;;;;;;5.33;5.33;;;;;17.32;73.53;99023.53;4978897;28;47182;-70
2021/10/03 04:31:24;;;;;;;;;5.33;5.33;;;;;17.31;73.29;99033.31;4979366;28;45340;-70
2021/10/03 04:33:49;;;;;;;;;7.00;5.00;;;;;17.34;73.51;99020.69;4980285;28;45402;-70
2021/10/03 04:36:14;;;;;;;;;5.33;5.00;;;;;17.33;73.31;99027.81;4979613;28;45432;-71
2021/10/03 04:38:40;;;;;;;;;9.00;8.00;;;;;17.34;73.69;99015.38;4971227;28;46290;-71
2021/10/03 04:41:06;;;;;;;;;9.00;5.00;;;;;17.31;73.83;99028.00;4980142;28;45498;-71
2021/10/03 04:43:32;;;;;;;;;7.00;5.67;;;;;17.28;73.06;99025.75;4970606;28;45427;-71
2021/10/03 04:45:57;;;;;;;;;4.67;4.67;;;;;17.27;73.84;99026.78;4982035;28;45314;-71
2021/10/03 04:48:23;;;;;;;;;9.67;8.00;;;;;17.27;73.80;99016.16;4981891;28;45956;-72
2021/10/03 04:50:48;;;;;;;;;8.00;5.33;;;;;17.27;73.78;99021.47;4984706;28;45266;-71
2021/10/03 04:53:14;;;;;;;;;6.00;6.00;;;;;17.28;74.02;99027.56;4980656;28;45444;-71
2021/10/03 04:55:39;;;;;;;;;9.00;6.33;;;;;17.27;73.87;99021.47;4978719;28;45304;-70
2021/10/03 04:58:05;;;;;;;;;9.00;7.33;;;;;17.26;73.48;99022.47;4981607;28;47000;-72
2021/10/03 05:00:30;;;;;;;;;5.33;4.00;;;;;17.29;73.60;99030.06;4979818;28;45616;-73
2021/10/03 05:02:56;;;;;;;;;5.67;5.67;;;;;17.29;74.64;99023.91;4976558;28;45476;-72
2021/10/03 05:05:22;;;;;;;;;5.67;5.67;;;;;17.27;73.92;99010.84;4981391;28;45492;-73
2021/10/03 05:07:48;;;;;;;;;8.00;7.67;;;;;17.30;73.89;99021.06;4977577;28;46598;-71
2021/10/03 05:10:13;;;;;;;;;6.00;6.00;;;;;17.30;73.96;98999.81;4979027;28;45559;-73
2021/10/03 05:12:39;;;;;;;;;7.00;6.67;;;;;17.26;74.17;99000.44;4980623;28;45488;-71
2021/10/03 05:15:06;;;;;;;;;9.33;8.00;;;;;17.32;73.77;99011.06;4984859;28;45877;-72
2021/10/03 05:17:31;;;;;;;;;8.00;6.33;;;;;17.32;73.79;99013.72;4990593;28;45425;-71
2021/10/03 05:19:56;;;;;;;;;4.67;4.67;;;;;17.32;74.45;98997.81;4978020;28;45315;-71
2021/10/03 05:22:24;;;;;;;;;8.67;6.67;;;;;17.32;73.92;99000.47;4992226;28;45699;-72
2021/10/03 05:24:53;;;;;;;;;6.33;6.33;;;;;17.32;74.40;98997.81;4980882;28;45635;-71
2021/10/03 05:27:19;;;;;;;;;4.67;4.67;;;;;17.32;74.23;99005.75;4980052;28;46206;-70
2021/10/03 05:29:45;;;;;;;;;6.33;6.00;;;;;17.30;73.92;98994.53;4980206;28;45388;-71
2021/10/03 05:32:10;;;;;;;;;4.33;4.00;;;;;17.28;74.45;98995.72;4980019;28;45589;-72
2021/10/03 05:34:36;;;;;;;;;5.33;5.00;;;;;17.30;74.13;98994.53;4976460;28;45389;-71
2021/10/03 05:37:02;;;;;;;;;6.00;6.00;;;;;17.30;74.13;98999.81;4980945;28;46228;-71
2021/10/03 05:39:28;;;;;;;;;6.67;6.67;;;;;17.29;74.44;99003.53;4980074;28;45465;-72
2021/10/03 05:41:53;;;;;;;;;8.00;6.33;;;;;17.28;74.81;99011.66;4979804;28;45474;-72
2021/10/03 05:44:18;;;;;;;;;7.33;7.33;;;;;17.31;74.13;99016.59;4978923;28;45472;-74
2021/10/03 05:46:44;;;;;;;;;7.33;7.00;;;;;17.32;74.86;99039.47;4975997;28;45903;-70
2021/10/03 05:49:09;;;;;;;;;7.00;6.00;;;;;17.27;74.70;99029.44;4963079;28;45494;-71
2021/10/03 05:51:35;;;;;;;;;4.67;4.67;;;;;17.25;75.32;99044.72;4980054;28;45431;-70
2021/10/03 05:54:02;;;;;;;;;7.00;7.00;;;;;17.23;75.30;99052.06;4962399;28;45406;-72
2021/10/03 05:56:27;;;;;;;;;9.00;7.67;;;;;17.16;76.32;99091.00;4965924;28;45459;-70
2021/10/03 05:58:52;;;;;;;;;8.67;8.67;;;;;17.06;75.47;99104.66;4963007;28;45471;-71
2021/10/03 06:01:18;;;;;;;;;6.00;6.00;;;;;16.98;77.32;99105.63;4977816;28;45501;-70
2021/10/03 06:03:43;;;;;;;;;7.33;5.67;;;;;16.91;75.96;99064.97;4974728;28;45533;-71
2021/10/03 06:06:08;;;;;;;;;6.67;5.00;;;;;16.86;77.78;99109.78;4976025;28;45959;-71
2021/10/03 06:08:34;;;;;;;;;4.33;4.00;;;;;16.73;77.22;99117.66;4972680;28;45402;-71
2021/10/03 06:10:59;;;;;;;;;5.33;3.33;;;;;16.64;77.26;99139.03;4979547;28;45321;-71
2021/10/03 06:13:24;;;;;;;;;1.67;1.67;;;;;16.60;77.94;99158.97;4961014;28;45589;-69
2021/10/03 06:15:50;;;;;;;;;3.00;1.33;;;;;16.43;77.44;99162.91;4962702;28;46429;-70
2021/10/03 06:18:15;;;;;;;;;0.00;0.00;;;;;16.32;77.80;99170.34;4978938;28;45409;-71
2021/10/03 06:20:42;;;;;;;;;0.00;0.00;;;;;16.20;77.72;99165.75;4979643;28;45389;-70
2021/10/03 06:23:07;;;;;;;;;0.33;0.00;;;;;16.06;78.03;99162.13;4975319;28;45499;-70
2021/10/03 06:25:33;;;;;;;;;0.00;0.00;;;;;15.92;78.04;99167.28;4973271;28;46969;-70
2021/10/03 06:27:59;;;;;;;;;2.00;2.00;;;;;15.84;78.35;99170.88;4967427;28;45611;-71
2021/10/03 06:30:24;;;;;;;;;0.00;0.00;;;;;15.79;78.39;99177.72;4978048;28;45275;-70
2021/10/03 06:32:50;;;;;;;;;0.00;0.00;;;;;15.79;78.67;99178.53;4979795;28;45545;-71
2021/10/03 06:35:16;;;;;;;;;0.00;0.00;;;;;15.68;78.35;99171.03;4979570;28;47375;-71
2021/10/03 06:37:42;;;;;;;;;0.00;0.00;;;;;15.57;78.68;99174.16;4968602;28;45317;-71
2021/10/03 06:40:08;;;;;;;;;0.00;0.00;;;;;15.48;78.92;99176.91;4979865;28;45363;-70
2021/10/03 06:42:33;;;;;;;;;0.00;0.00;;;;;15.42;79.44;99190.88;4979327;28;45682;-70
2021/10/03 06:44:59;;;;;;;;;0.00;0.00;;;;;15.35;79.73;99196.06;4979413;28;46040;-71
2021/10/03 06:47:24;;;;;;;;;9.00;2.33;;;;;15.27;79.59;99188.25;4978813;28;45658;-70
2021/10/03 06:49:50;;;;;;;;;0.33;0.00;;;;;15.23;79.93;99186.13;4976267;28;45592;-70
2021/10/03 06:52:15;;;;;;;;;0.00;0.00;;;;;15.18;80.20;99200.72;4978888;28;45318;-71
2021/10/03 06:54:41;;;;;;;;;0.00;0.00;;;;;15.17;80.60;99200.91;4979139;28;45219;-70
2021/10/03 06:57:06;;;;;;;;;0.00;0.00;;;;;15.16;80.97;99186.84;4974425;28;45594;-72
2021/10/03 06:59:32;;;;;;;;;0.00;0.00;;;;;15.16;80.87;99172.81;4970750;28;45512;-68
2021/10/03 07:02:00;;;;;;;;;0.00;0.00;;;;;15.13;81.19;99130.88;4976858;28;45497;-70
2021/10/03 07:04:30;;;;;;;;;1.00;0.00;;;;;15.07;79.81;99111.25;4977146;28;45504;-72
2021/10/03 07:06:56;;;;;;;;;0.00;0.00;;;;;14.99;80.17;99140.44;4975230;28;45514;-70
2021/10/03 07:09:22;;;;;;;;;0.00;0.00;;;;;14.95;80.60;99182.28;4959426;28;45478;-72
2021/10/03 07:11:47;;;;;;;;;0.00;0.00;;;;;14.92;80.42;99192.38;4979972;28;45460;-71
2021/10/03 07:14:12;;;;;;;;;1.00;0.00;;;;;14.93;81.04;99205.44;4978870;28;45515;-70
2021/10/03 07:16:38;;;;;;;;;2.33;0.00;;;;;14.96;80.97;99215.66;4976386;28;45414;-71
2021/10/03 07:19:03;;;;;;;;;0.00;0.00;;;;;14.98;80.98;99213.66;4983717;28;45279;-70
2021/10/03 07:21:28;;;;;;;;;0.00;0.00;;;;;15.00;81.12;99216.94;4969187;28;45529;-70
2021/10/03 07:23:54;;;;;;;;;1.00;0.00;;;;;15.04;81.07;99221.84;4988152;28;45283;-71
2021/10/03 07:26:19;;;;;;;;;2.00;1.00;;;;;15.06;80.96;99230.44;4995100;28;45394;-71
2021/10/03 07:28:44;;;;;;;;;0.00;0.00;;;;;15.09;80.82;99235.34;4968896;28;45874;-72
2021/10/03 07:31:11;;;;;;;;;1.00;0.00;;;;;15.10;81.29;99226.41;4985298;28;45401;-70
2021/10/03 07:33:37;;;;;;;;;0.00;0.00;;;;;15.10;80.85;99224.63;4996057;28;46102;-71
2021/10/03 07:36:02;;;;;;;;;1.00;1.00;;;;;15.14;81.48;99227.69;4989692;28;49793;-72
2021/10/03 07:38:27;;;;;;;;;1.00;0.00;;;;;15.17;81.50;99216.78;4982592;28;45562;-71
2021/10/03 07:40:53;;;;;;;;;2.00;1.00;;;;;15.19;81.44;99220.03;4963582;28;45505;-72
2021/10/03 07:43:18;;;;;;;;;4.00;2.67;;;;;15.21;81.36;99211.94;4994060;28;47257;-71
2021/10/03 07:45:43;;;;;;;;;2.00;0.67;;;;;15.23;81.54;99226.63;4984430;28;45322;-70
2021/10/03 07:48:09;;;;;;;;;1.00;1.00;;;;;15.25;81.51;99229.91;4986689;28;45559;-70
2021/10/03 07:50:34;;;;;;;;;0.00;0.00;;;;;15.29;81.58;99236.47;4991426;28;45372;-71
2021/10/03 07:53:00;;;;;;;;;1.67;1.67;;;;;15.32;81.31;99246.72;4980868;28;46229;-71
2021/10/03 07:55:28;;;;;;;;;1.00;1.00;;;;;15.36;81.38;99247.19;4981030;28;45385;-70
2021/10/03 07:58:05;;;;;;;;;2.00;2.00;;;;;15.41;81.29;99249.25;4980105;28;45328;-70
2021/10/03 08:00:31;;;;;;;;;3.00;2.00;;;;;15.44;81.04;99238.31;4983903;28;45426;-71
2021/10/03 08:02:56;;;;;;;;;1.00;1.00;;;;;15.48;80.76;99252.84;4984752;28;46211;-72
2021/10/03 08:05:22;;;;;;;;;1.33;1.33;;;;;15.50;81.09;99259.59;4985172;28;45509;-68
2021/10/03 08:07:47;;;;;;;;;3.00;2.00;;;;;15.54;80.78;99251.28;4981864;28;45258;-72
2021/10/03 08:10:14;;;;;;;;;1.00;1.00;;;;;15.58;80.57;99245.44;4985434;28;45363;-71
2021/10/03 08:12:39;;;;;;;;;3.00;2.00;;;;;15.60;80.80;99251.38;4990558;28;45365;-71
2021/10/03 08:15:05;;;;;;;;;3.33;1.00;;;;;15.63;80.81;99268.72;4987915;28;45318;-71
2021/10/03 08:17:31;;;;;;;;;1.00;1.00;;;;;15.67;80.26;99267.34;4982215;28;45714;-71
2021/10/03 08:19:56;;;;;;;;;2.67;2.00;;;;;15.75;80.40;99261.13;4978065;28;45553;-71
2021/10/03 08:22:21;;;;;;;;;2.00;1.00;;;;;15.83;79.84;99271.66;4979357;28;45293;-71
2021/10/03 08:24:47;;;;;;;;;1.00;0.00;;;;;15.92;79.97;99277.66;4980948;28;45460;-72
2021/10/03 08:27:12;;;;;;;;;2.67;1.00;;;;;16.03;79.63;99284.34;4980355;28;45339;-71
2021/10/03 08:29:37;;;;;;;;;2.00;0.33;;;;;16.12;79.13;99289.34;4972210;28;45401;-71
2021/10/03 08:32:03;;;;;;;;;2.00;0.00;;;;;16.19;78.89;99300.03;4966339;28;46650;-71
2021/10/03 08:34:29;;;;;;;;;1.67;0.00;;;;;16.24;78.83;99302.94;4978914;28;45320;-72
2021/10/03 08:36:54;;;;;;;;;1.67;1.00;;;;;16.30;78.62;99306.69;4981470;28;45417;-70
2021/10/03 08:39:19;;;;;;;;;3.00;1.00;;;;;16.39;78.31;99296.78;4985269;28;45769;-71
2021/10/03 08:41:46;;;;;;;;;2.00;2.00;;;;;16.42;78.16;99301.72;4986611;28;45450;-71
2021/10/03 08:44:11;;;;;;;;;0.67;0.67;;;;;16.45;78.25;99302.16;4982280;28;45558;-71
2021/10/03 08:46:37;;;;;;;;;0.67;0.67;;;;;16.48;77.92;99300.97;4977657;28;45472;-70
2021/10/03 08:49:03;;;;;;;;;2.67;1.00;;;;;16.54;78.00;99302.88;4982197;28;45461;-71
2021/10/03 08:51:29;;;;;;;;;0.67;0.67;;;;;16.62;77.90;99316.00;4980822;28;45425;-70
2021/10/03 08:53:55;;;;;;;;;2.00;2.00;;;;;16.73;77.57;99332.44;4981012;28;45546;-71
2021/10/03 08:56:24;;;;;;;;;1.67;1.67;;;;;16.80;77.25;99333.31;4980178;28;45468;-70
2021/10/03 08:58:51;;;;;;;;;1.67;1.67;;;;;16.84;76.61;99329.28;4982959;28;45424;-73
2021/10/03 09:01:17;;;;;;;;;1.67;1.67;;;;;16.90;76.61;99343.63;4981821;28;46075;-72
2021/10/03 09:03:44;;;;;;;;;0.67;0.67;;;;;16.94;76.42;99350.19;4990782;28;45490;-73
2021/10/03 09:06:10;;;;;;;;;1.67;1.67;;;;;16.90;76.54;99322.41;4984746;28;45437;-73
2021/10/03 09:08:42;;;;;;;;;3.33;1.00;;;;;16.98;76.18;99331.09;4981202;28;46468;-71
2021/10/03 09:11:14;;;;;;;;;1.67;1.67;;;;;17.05;75.98;99351.56;4979826;28;46277;-73
2021/10/03 09:13:49;;;;;;;;;3.67;1.00;;;;;17.10;75.86;99346.47;4977915;28;45295;-71
2021/10/03 09:16:35;;;;;;;;;2.33;0.00;;;;;17.16;75.72;99353.69;4966536;28;45436;-71
2021/10/03 09:19:12;;;;;;;;;0.67;0.67;;;;;17.21;76.01;99367.19;4987738;28;45510;-74
2021/10/03 09:21:42;;;;;;;;;0.67;0.67;;;;;17.22;75.32;99362.72;4974918;28;50983;-70
2021/10/03 09:24:10;;;;;;;;;2.00;1.00;;;;;17.25;76.53;99371.09;4957605;28;45479;-75
2021/10/03 09:26:37;;;;;;;;;0.67;0.67;;;;;17.24;75.64;99376.59;4980673;28;45513;-76
2021/10/03 09:29:24;;;;;;;;;1.33;1.00;;;;;17.23;75.89;99380.25;4977025;28;45437;-75
2021/10/03 09:32:12;;;;;;;;;2.00;0.67;;;;;17.21;75.67;99377.81;4964226;28;47199;-76
2021/10/03 09:34:47;;;;;;;;;0.67;0.67;;;;;17.22;76.16;99387.41;4971030;28;45435;-73
2021/10/03 09:37:27;;;;;;;;;1.33;0.67;;;;;17.22;75.13;99397.22;4979577;28;45489;-78
2021/10/03 09:40:03;;;;;;;;;1.33;0.67;;;;;17.26;75.45;99401.94;4966275;28;45612;-72
2021/10/03 09:42:29;;;;;;;;;2.00;1.00;;;;;17.28;76.04;99409.72;4978840;28;46958;-75
2021/10/03 09:45:10;;;;;;;;;1.00;1.00;;;;;17.29;75.49;99406.88;4976908;28;45466;-76
2021/10/03 09:47:38;;;;;;;;;0.00;0.00;;;;;17.32;75.76;99411.81;4970917;28;45359;-74
2021/10/03 09:50:06;;;;;;;;;3.00;2.00;;;;;17.30;75.70;99410.34;4976965;28;45494;-71
2021/10/03 09:52:33;;;;;;;;;2.67;2.67;;;;;17.27;75.76;99418.69;4984618;28;46930;-75
2021/10/03 09:55:01;;;;;;;;;1.00;1.00;;;;;17.23;75.83;99423.56;4955102;28;45946;-72
2021/10/03 09:57:27;;;;;;;;;0.67;0.67;;;;;17.23;75.71;99497.03;4973676;28;45322;-75
2021/10/03 09:59:53;;;;;;;;;0.00;0.00;;;;;17.14;74.78;99549.41;4974188;28;45476;-69
2021/10/03 10:02:19;;;;;;;;;1.67;0.67;;;;;16.85;74.40;99548.38;4979059;28;46365;-74
2021/10/03 10:04:44;;;;;;;;;0.00;0.00;;;;;16.52;72.94;99572.59;4975583;28;45482;-72
2021/10/03 10:07:11;;;;;;;;;0.00;0.00;;;;;16.26;73.78;99602.97;4977608;28;45310;-72
2021/10/03 10:09:38;;;;;;;;;0.00;0.00;;;;;16.04;73.56;99620.53;4979898;28;45502;-71
2021/10/03 10:12:12;;;;;;;;;1.00;0.00;;;;;15.84;73.85;99612.25;4982749;28;47660;-74
2021/10/03 10:14:42;;;;;;;;;0.00;0.00;;;;;15.72;73.73;99645.38;4979115;28;45440;-72
2021/10/03 10:17:26;;;;;;;;;0.00;0.00;;;;;15.59;73.97;99675.84;4985108;28;45281;-73
2021/10/03 10:19:54;;;;;;;;;0.00;0.00;;;;;15.52;73.80;99680.19;4976581;28;45307;-73
2021/10/03 10:22:22;;;;;;;;;0.00;0.00;;;;;15.50;74.33;99690.13;4999556;28;46308;-73
2021/10/03 10:24:53;;;;;;;;;0.00;0.00;;;;;15.43;73.51;99721.75;4986427;28;45173;-74
2021/10/03 10:27:18;;;;;;;;;0.00;0.00;;;;;15.35;73.98;99701.41;4987809;28;45469;-72
2021/10/03 10:29:59;;;;;;;;;0.00;0.00;;;;;15.24;73.73;99724.78;4991775;28;45343;-71
2021/10/03 10:32:35;;;;;;;;;1.00;0.00;;;;;15.11;73.08;99715.53;4975248;28;47642;-71
2021/10/03 10:35:09;;;;;;;;;0.00;0.00;;;;;15.04;73.04;99742.81;4984141;28;45236;-71
2021/10/03 10:37:50;;;;;;;;;0.00;0.00;;;;;14.93;73.66;99755.41;4981517;28;45500;-71
2021/10/03 10:40:21;;;;;;;;;0.67;0.00;;;;;14.90;73.93;99755.72;4966868;28;45313;-72
2021/10/03 10:43:08;;;;;;;;;0.00;0.00;;;;;14.88;73.78;99776.22;4991633;28;46383;-72
2021/10/03 10:45:37;;;;;;;;;2.33;0.00;;;;;14.84;73.31;99780.16;4984036;28;45375;-72
2021/10/03 10:48:08;;;;;;;;;0.00;0.00;;;;;14.82;73.71;99796.19;4979610;28;45341;-72
2021/10/03 10:50:49;;;;;;;;;6.00;2.33;;;;;14.81;73.70;99818.34;4978421;28;45584;-70
2021/10/03 10:53:15;;;;;;;;;0.00;0.00;;;;;14.77;73.73;99837.34;4986775;28;46366;-70
2021/10/03 10:55:40;;;;;;;;;3.00;1.00;;;;;14.76;73.88;99848.91;4978386;28;45259;-72
2021/10/03 10:58:07;;;;;;;;;1.00;0.00;;;;;14.68;72.94;99853.19;4969694;28;45409;-70
2021/10/03 11:00:32;;;;;;;;;0.00;0.00;;;;;14.59;72.77;99879.72;4977083;28;45345;-72
2021/10/03 11:03:03;;;;;;;;;0.00;0.00;;;;;14.49;72.50;99879.84;4973979;28;45351;-73
2021/10/03 11:05:32;;;;;;;;;0.00;0.00;;;;;14.47;73.29;99882.66;4971015;28;45280;-71
2021/10/03 11:08:04;;;;;;;;;0.00;0.00;;;;;14.51;73.23;99889.28;4990081;28;45473;-71
2021/10/03 11:10:29;;;;;;;;;0.00;0.00;;;;;14.57;73.24;99892.25;4950319;28;45526;-72
2021/10/03 11:12:55;;;;;;;;;0.67;0.67;;;;;14.65;72.65;99864.09;4965098;28;47340;-72
2021/10/03 11:15:22;;;;;;;;;0.00;0.00;;;;;14.73;72.06;99880.97;4987815;28;45245;-71
2021/10/03 11:17:50;;;;;;;;;0.00;0.00;;;;;14.83;72.88;99886.94;4990026;28;45404;-70
2021/10/03 11:20:15;;;;;;;;;0.00;0.00;;;;;14.93;71.80;99900.84;4982066;28;45564;-71
2021/10/03 11:22:41;;;;;;;;;2.00;1.00;;;;;14.99;70.80;99897.53;4995991;28;46918;-71
2021/10/03 11:25:07;;;;;;;;;0.00;0.00;;;;;15.06;70.73;99902.16;4982784;28;45461;-75
2021/10/03 11:27:32;;;;;;;;;0.00;0.00;;;;;15.13;70.39;99909.28;4988836;28;45517;-74
2021/10/03 11:30:00;;;;;;;;;1.00;0.00;;;;;15.22;69.90;99927.78;4985125;28;45521;-71
2021/10/03 11:32:27;;;;;;;;;1.00;0.00;;;;;15.27;69.77;99960.72;4980412;28;46612;-71